createdAt,value
2018-10-18T03:01:04.190Z,0.00
2018-10-18T03:02:04.236Z,0.00
2018-10-18T03:03:04.459Z,0.00
2018-10-18T03:04:04.529Z,0.00
2018-10-18T03:05:04.690Z,0.00
2018-10-18T03:06:05.053Z,0.00
2018-10-18T03:07:05.060Z,0.00
2018-10-18T03:08:05.231Z,0.00
2018-10-18T03:09:05.441Z,0.00
2018-10-18T03:10:05.591Z,0.00
2018-10-18T03:11:05.727Z,0.00
2018-10-18T03:12:06.004Z,0.00
2018-10-18T03:13:06.038Z,0.00
2018-10-18T03:14:06.255Z,0.00
2018-10-18T03:15:06.549Z,0.00
2018-10-18T03:16:06.641Z,0.00
2018-10-18T03:17:06.762Z,0.00
2018-10-18T03:18:07.027Z,0.00
2018-10-18T03:19:07.114Z,0.00
2018-10-18T03:20:07.205Z,0.00
2018-10-18T03:21:07.476Z,0.00
2018-10-18T03:22:07.668Z,0.00
2018-10-18T03:23:07.818Z,0.00
2018-10-18T03:24:07.976Z,0.00
2018-10-18T03:25:08.116Z,0.00
2018-10-18T03:26:08.307Z,0.00
2018-10-18T03:27:08.398Z,0.00
2018-10-18T03:28:08.543Z,0.00
2018-10-18T03:29:08.764Z,0.00
2018-10-18T03:30:08.987Z,0.00
2018-10-18T03:31:09.096Z,0.00
2018-10-18T03:32:09.282Z,0.00
2018-10-18T03:33:09.513Z,0.00
2018-10-18T03:34:09.669Z,0.00
2018-10-18T03:35:09.807Z,0.00
2018-10-18T03:36:09.992Z,0.00
2018-10-18T03:37:10.162Z,0.00
2018-10-18T03:38:10.231Z,0.00
2018-10-18T03:39:11.185Z,0.00
2018-10-18T03:40:10.671Z,0.00
2018-10-18T03:41:10.758Z,0.00
2018-10-18T03:42:11.025Z,0.00
2018-10-18T03:43:11.169Z,0.00
2018-10-18T03:44:11.243Z,0.00
2018-10-18T03:45:11.455Z,0.00
2018-10-18T03:46:11.544Z,0.00
2018-10-18T03:47:11.768Z,0.00
2018-10-18T03:48:11.938Z,0.00
2018-10-18T03:49:12.142Z,0.00
2018-10-18T03:50:12.280Z,0.00
2018-10-18T03:51:12.509Z,0.00
2018-10-18T03:52:12.591Z,0.00
2018-10-18T03:53:12.825Z,0.00
2018-10-18T03:54:13.044Z,0.00
2018-10-18T03:55:13.062Z,0.00
2018-10-18T03:56:14.182Z,0.00
2018-10-18T03:57:13.528Z,0.00
2018-10-18T03:58:13.685Z,0.00
2018-10-18T03:59:13.758Z,0.00
2018-10-18T04:00:14.070Z,0.00
2018-10-18T04:01:14.176Z,0.00
2018-10-18T04:02:14.331Z,0.00
2018-10-18T04:03:14.444Z,0.00
2018-10-18T04:04:15.088Z,0.00
2018-10-18T04:05:14.764Z,0.00
2018-10-18T04:06:14.990Z,0.00
2018-10-18T04:07:15.266Z,0.00
2018-10-18T04:08:15.276Z,0.00
2018-10-18T04:09:16.095Z,0.00
2018-10-18T04:10:15.681Z,0.00
2018-10-18T04:11:15.840Z,0.00
2018-10-18T04:12:16.227Z,0.00
2018-10-18T04:13:16.156Z,0.00
2018-10-18T04:14:16.262Z,0.00
2018-10-18T04:15:16.447Z,0.00
2018-10-18T04:16:16.724Z,0.00
2018-10-18T04:17:16.855Z,0.00
2018-10-18T04:18:17.116Z,0.00
2018-10-18T04:19:17.156Z,0.00
2018-10-18T04:20:17.452Z,0.00
2018-10-18T04:21:18.047Z,0.00
2018-10-18T04:22:18.697Z,0.00
2018-10-18T04:23:18.041Z,0.00
2018-10-18T04:24:18.220Z,0.00
2018-10-18T04:25:18.322Z,0.00
2018-10-18T04:26:18.451Z,0.00
2018-10-18T04:27:18.607Z,0.00
2018-10-18T04:28:18.842Z,0.00
2018-10-18T04:29:19.022Z,0.00
2018-10-18T04:30:19.620Z,0.00
2018-10-18T04:31:19.340Z,0.00
2018-10-18T04:32:19.406Z,0.00
2018-10-18T04:33:19.807Z,0.00
2018-10-18T04:34:19.841Z,0.00
2018-10-18T04:35:20.059Z,0.00
2018-10-18T04:36:20.338Z,0.00
2018-10-18T04:37:21.284Z,0.00
2018-10-18T04:38:20.559Z,0.00
2018-10-18T04:39:20.822Z,0.00
2018-10-18T04:40:20.910Z,0.00
2018-10-18T04:41:21.007Z,0.00
2018-10-18T04:42:21.242Z,0.00
2018-10-18T04:43:21.474Z,0.00
2018-10-18T04:44:22.083Z,0.00
2018-10-18T04:45:21.776Z,0.00
2018-10-18T04:46:21.856Z,0.00
2018-10-18T04:47:22.196Z,0.00
2018-10-18T04:48:22.437Z,0.00
2018-10-18T04:49:22.435Z,0.00
2018-10-18T04:50:22.576Z,0.00
2018-10-18T04:51:22.823Z,0.00
2018-10-18T04:52:22.949Z,0.00
2018-10-18T04:53:23.099Z,0.00
2018-10-18T04:54:23.294Z,0.00
2018-10-18T04:55:23.408Z,0.00
2018-10-18T04:56:23.436Z,0.00
2018-10-18T04:57:23.725Z,0.00
2018-10-18T04:58:23.933Z,0.00
2018-10-18T04:59:24.021Z,0.00
2018-10-18T05:00:24.195Z,0.00
2018-10-18T05:01:24.667Z,0.00
2018-10-18T05:02:24.556Z,0.00
2018-10-18T05:03:24.720Z,0.00
2018-10-18T05:04:24.796Z,0.00
2018-10-18T05:05:25.258Z,0.00
2018-10-18T05:06:25.597Z,0.00
2018-10-18T05:07:25.525Z,0.00
2018-10-18T05:08:25.610Z,0.00
2018-10-18T05:09:25.801Z,0.00
2018-10-18T05:10:26.048Z,0.00
2018-10-18T05:11:26.147Z,0.00
2018-10-18T05:12:26.483Z,0.00
2018-10-18T05:13:26.675Z,0.00
2018-10-18T05:14:26.626Z,0.00
2018-10-18T05:15:26.818Z,0.00
2018-10-18T05:16:26.901Z,0.00
2018-10-18T05:17:27.034Z,0.00
2018-10-18T05:18:27.243Z,0.00
2018-10-18T05:19:27.443Z,4.00
2018-10-18T05:20:27.659Z,4.00
2018-10-18T05:21:27.909Z,0.00
2018-10-18T05:22:28.078Z,4.00
2018-10-18T05:23:28.165Z,4.00
2018-10-18T05:24:29.250Z,8.00
2018-10-18T05:25:28.399Z,8.00
2018-10-18T05:26:28.486Z,8.00
2018-10-18T05:27:28.852Z,8.00
2018-10-18T05:28:28.937Z,8.00
2018-10-18T05:29:29.127Z,12.00
2018-10-18T05:30:29.297Z,12.00
2018-10-18T05:31:29.469Z,16.00
2018-10-18T05:32:29.514Z,20.00
2018-10-18T05:33:29.702Z,24.00
2018-10-18T05:34:29.902Z,28.00
2018-10-18T05:35:30.169Z,28.00
2018-10-18T05:36:30.276Z,36.00
2018-10-18T05:37:30.535Z,36.00
2018-10-18T05:38:30.662Z,44.00
2018-10-18T05:39:30.723Z,48.00
2018-10-18T05:40:30.877Z,56.00
2018-10-18T05:41:31.080Z,64.00
2018-10-18T05:42:31.329Z,72.00
2018-10-18T05:43:31.508Z,80.00
2018-10-18T05:44:31.693Z,92.00
2018-10-18T05:45:31.813Z,100.00
2018-10-18T05:46:31.999Z,112.00
2018-10-18T05:47:32.209Z,124.00
2018-10-18T05:48:32.401Z,140.00
2018-10-18T05:49:32.579Z,152.00
2018-10-18T05:50:32.682Z,164.00
2018-10-18T05:51:32.946Z,176.00
2018-10-18T05:52:33.073Z,188.00
2018-10-18T05:53:33.271Z,200.00
2018-10-18T05:54:33.350Z,212.00
2018-10-18T05:55:33.584Z,228.00
2018-10-18T05:56:33.671Z,240.00
2018-10-18T05:57:34.012Z,252.00
2018-10-18T05:58:34.201Z,272.00
2018-10-18T05:59:34.175Z,296.00
2018-10-18T06:00:34.415Z,316.00
2018-10-18T06:01:34.599Z,332.00
2018-10-18T06:02:34.834Z,352.00
2018-10-18T06:03:34.926Z,380.00
2018-10-18T06:04:35.384Z,408.00
2018-10-18T06:05:36.517Z,432.00
2018-10-18T06:06:35.578Z,460.00
2018-10-18T06:07:36.312Z,484.00
2018-10-18T06:08:38.745Z,512.00
2018-10-18T06:09:39.361Z,544.00
2018-10-18T06:10:37.271Z,588.00
2018-10-18T06:11:36.335Z,628.00
2018-10-18T06:12:36.608Z,656.00
2018-10-18T06:13:38.017Z,692.00
2018-10-18T06:14:37.017Z,716.00
2018-10-18T06:15:38.269Z,760.00
2018-10-18T06:16:37.559Z,796.00
2018-10-18T06:17:43.243Z,828.00
2018-10-18T06:18:41.317Z,848.00
2018-10-18T06:19:39.095Z,900.00
2018-10-18T06:20:37.933Z,928.00
2018-10-18T06:21:38.480Z,964.00
2018-10-18T06:22:40.857Z,996.00
2018-10-18T06:23:39.364Z,1040.00
2018-10-18T06:24:42.063Z,1072.00
2018-10-18T06:25:40.489Z,1108.00
2018-10-18T06:26:41.471Z,1148.00
2018-10-18T06:27:43.044Z,1200.00
2018-10-18T06:28:39.384Z,1224.00
2018-10-18T06:29:39.642Z,1256.00
2018-10-18T06:30:41.127Z,1292.00
2018-10-18T06:31:39.775Z,1304.00
2018-10-18T06:32:40.175Z,1356.00
2018-10-18T06:33:40.659Z,1424.00
2018-10-18T06:34:44.342Z,1480.00
2018-10-18T06:35:43.486Z,1544.00
2018-10-18T06:36:41.037Z,1612.00
2018-10-18T06:37:40.919Z,1704.00
2018-10-18T06:38:43.531Z,1772.00
2018-10-18T06:39:41.194Z,1792.00
2018-10-18T06:40:41.521Z,1828.00
2018-10-18T06:41:41.914Z,1948.00
2018-10-18T06:42:41.964Z,2056.00
2018-10-18T06:43:42.736Z,2112.00
2018-10-18T06:44:41.844Z,2100.00
2018-10-18T06:46:42.358Z,2204.00
2018-10-18T06:47:46.265Z,2348.00
2018-10-18T06:48:43.463Z,2500.00
2018-10-18T06:49:43.494Z,2588.00
2018-10-18T06:50:43.158Z,2628.00
2018-10-18T06:51:43.098Z,2708.00
2018-10-18T06:52:43.408Z,2832.00
2018-10-18T06:53:44.201Z,2788.00
2018-10-18T06:54:44.612Z,2860.00
2018-10-18T06:55:44.863Z,2932.00
2018-10-18T06:56:44.170Z,2792.00
2018-10-18T06:57:44.286Z,2664.00
2018-10-18T06:58:44.258Z,2680.00
2018-10-18T06:59:45.305Z,2716.00
2018-10-18T07:00:45.598Z,2716.00
2018-10-18T07:01:44.861Z,2600.00
2018-10-18T07:02:45.051Z,2452.00
2018-10-18T07:03:45.206Z,2712.00
2018-10-18T07:04:45.293Z,2708.00
2018-10-18T07:05:45.498Z,2484.00
2018-10-18T07:06:45.577Z,2360.00
2018-10-18T07:07:46.082Z,2372.00
2018-10-18T07:08:46.052Z,2304.00
2018-10-18T07:09:46.661Z,2240.00
2018-10-18T07:10:46.437Z,2612.00
2018-10-18T07:11:46.544Z,3008.00
2018-10-18T07:12:48.732Z,3208.00
2018-10-18T07:13:46.990Z,3396.00
2018-10-18T07:15:21.076Z,3684.00
2018-10-18T07:15:47.389Z,3580.00
2018-10-18T07:16:47.661Z,3528.00
2018-10-18T07:17:47.935Z,3664.00
2018-10-18T07:18:48.907Z,3644.00
2018-10-18T07:20:49.257Z,4144.00
2018-10-18T07:21:49.449Z,4724.00
2018-10-18T07:22:50.134Z,4584.00
2018-10-18T07:23:48.721Z,4704.00
2018-10-18T07:24:49.282Z,5032.00
2018-10-18T07:25:49.323Z,5372.00
2018-10-18T07:26:49.680Z,5256.00
2018-10-18T07:27:49.850Z,5524.00
2018-10-18T07:29:50.608Z,5916.00
2018-10-18T07:30:52.486Z,5668.00
2018-10-18T07:31:51.536Z,5556.00
2018-10-18T07:32:52.109Z,5756.00
2018-10-18T07:33:52.898Z,5712.00
2018-10-18T07:34:51.765Z,5856.00
2018-10-18T07:35:50.734Z,5736.00
2018-10-18T07:36:52.362Z,5844.00
2018-10-18T07:37:51.298Z,6196.00
2018-10-18T07:38:52.544Z,6200.00
2018-10-18T07:39:52.406Z,5896.00
2018-10-18T07:40:51.810Z,6048.00
2018-10-18T07:41:52.147Z,5808.00
2018-10-18T07:42:52.523Z,5968.00
2018-10-18T07:44:53.156Z,6672.00
2018-10-18T07:45:53.909Z,7140.00
2018-10-18T07:46:53.725Z,7468.00
2018-10-18T07:47:53.373Z,7472.00
2018-10-18T07:48:53.205Z,7576.00
2018-10-18T07:49:53.609Z,7988.00
2018-10-18T07:50:53.585Z,7716.00
2018-10-18T07:51:54.155Z,7024.00
2018-10-18T07:52:54.420Z,7644.00
2018-10-18T07:53:54.453Z,7796.00
2018-10-18T07:54:54.657Z,7748.00
2018-10-18T07:55:56.019Z,8124.00
2018-10-18T07:56:54.488Z,7896.00
2018-10-18T07:57:55.536Z,7480.00
2018-10-18T07:58:56.263Z,7900.00
2018-10-18T08:01:55.836Z,8132.00
2018-10-18T08:02:55.797Z,8168.00
2018-10-18T08:03:59.562Z,7992.00
2018-10-18T08:04:56.093Z,8456.00
2018-10-18T08:05:55.741Z,8852.00
2018-10-18T08:06:56.894Z,8068.00
2018-10-18T08:07:57.660Z,7720.00
2018-10-18T08:08:56.264Z,7792.00
2018-10-18T08:09:56.713Z,8008.00
2018-10-18T08:10:56.911Z,7736.00
2018-10-18T08:11:58.032Z,8700.00
2018-10-18T08:12:58.067Z,8864.00
2018-10-18T08:13:57.263Z,9544.00
2018-10-18T08:14:58.510Z,11688.00
2018-10-18T08:15:58.397Z,13236.00
2018-10-18T08:16:57.667Z,13516.00
2018-10-18T08:17:57.672Z,13532.00
2018-10-18T08:18:57.843Z,12872.00
2018-10-18T08:19:58.714Z,13900.00
2018-10-18T08:20:58.234Z,14172.00
2018-10-18T08:21:58.373Z,14028.00
2018-10-18T08:22:58.466Z,13896.00
2018-10-18T08:23:58.645Z,15520.00
2018-10-18T08:24:58.861Z,15552.00
2018-10-18T08:25:59.603Z,15808.00
2018-10-18T08:26:59.114Z,16768.00
2018-10-18T08:27:59.294Z,15328.00
2018-10-18T08:28:59.584Z,14512.00
2018-10-18T08:29:59.647Z,14736.00
2018-10-18T08:31:00.139Z,14184.00
2018-10-18T08:32:00.080Z,15044.00
2018-10-18T08:33:00.182Z,13736.00
2018-10-18T08:34:01.170Z,13940.00
2018-10-18T08:35:00.542Z,14480.00
2018-10-18T08:36:01.027Z,15392.00
2018-10-18T08:37:00.938Z,14380.00
2018-10-18T08:38:01.270Z,14704.00
2018-10-18T08:39:02.667Z,14880.00
2018-10-18T08:40:02.266Z,15200.00
2018-10-18T08:41:01.636Z,16800.00
2018-10-18T08:42:02.140Z,14948.00
2018-10-18T08:43:02.977Z,15808.00
2018-10-18T08:44:02.264Z,19520.00
2018-10-18T08:45:02.138Z,19456.00
2018-10-18T08:46:03.611Z,18144.00
2018-10-18T08:47:02.600Z,18144.00
2018-10-18T08:48:04.134Z,18720.00
2018-10-18T08:49:03.775Z,20832.00
2018-10-18T08:50:03.093Z,19296.00
2018-10-18T08:52:03.836Z,20864.00
2018-10-18T08:53:04.717Z,21024.00
2018-10-18T08:54:07.064Z,21888.00
2018-10-18T08:55:04.121Z,24512.00
2018-10-18T08:56:04.172Z,22080.00
2018-10-18T08:57:04.316Z,23264.00
2018-10-18T08:58:04.509Z,20384.00
2018-10-18T08:59:04.695Z,21376.00
2018-10-18T09:00:05.678Z,20256.00
2018-10-18T09:01:05.104Z,23424.00
2018-10-18T09:02:05.235Z,19072.00
2018-10-18T09:03:05.757Z,20640.00
2018-10-18T09:04:05.616Z,18944.00
2018-10-18T09:05:06.498Z,18272.00
2018-10-18T09:06:05.943Z,17664.00
2018-10-18T09:07:06.141Z,19456.00
2018-10-18T09:08:06.532Z,22752.00
2018-10-18T09:09:06.464Z,22208.00
2018-10-18T09:10:06.652Z,19168.00
2018-10-18T09:11:06.767Z,19808.00
2018-10-18T09:12:06.976Z,26368.00
2018-10-18T09:13:07.200Z,25280.00
2018-10-18T09:14:07.327Z,29920.00
2018-10-18T09:15:07.574Z,32704.00
2018-10-18T09:16:07.798Z,33408.00
2018-10-18T09:17:07.825Z,31648.00
2018-10-18T09:18:08.044Z,36160.00
2018-10-18T09:19:08.209Z,40512.00
2018-10-18T09:20:08.371Z,41440.00
2018-10-18T09:21:08.535Z,41152.00
2018-10-18T09:22:08.711Z,43776.00
2018-10-18T09:23:08.870Z,41792.00
2018-10-18T09:24:09.027Z,40704.00
2018-10-18T09:25:09.264Z,39232.00
2018-10-18T09:26:09.315Z,41472.00
2018-10-18T09:27:09.529Z,44064.00
2018-10-18T09:28:09.662Z,42912.00
2018-10-18T09:29:09.834Z,41472.00
2018-10-18T09:30:10.074Z,39808.00
2018-10-18T09:31:10.222Z,43616.00
2018-10-18T09:32:10.314Z,44640.00
2018-10-18T09:33:10.490Z,44096.00
2018-10-18T09:34:10.679Z,43616.00
2018-10-18T09:35:11.653Z,46592.00
2018-10-18T09:36:11.011Z,47840.00
2018-10-18T09:37:11.244Z,44096.00
2018-10-18T09:38:11.338Z,42208.00
2018-10-18T09:39:11.667Z,44896.00
2018-10-18T09:40:11.696Z,45792.00
2018-10-18T09:41:11.830Z,45088.00
2018-10-18T09:42:12.103Z,45312.00
2018-10-18T09:43:12.337Z,44544.00
2018-10-18T09:44:12.438Z,44288.00
2018-10-18T09:45:12.616Z,44640.00
2018-10-18T09:46:12.837Z,45600.00
2018-10-18T09:47:12.902Z,47520.00
2018-10-18T09:48:13.066Z,45088.00
2018-10-18T09:49:13.314Z,46720.00
2018-10-18T09:50:13.558Z,46944.00
2018-10-18T09:51:13.670Z,38464.00
2018-10-18T09:52:13.727Z,43328.00
2018-10-18T09:53:13.938Z,47200.00
2018-10-18T09:54:14.139Z,40320.00
2018-10-18T09:55:14.450Z,47296.00
2018-10-18T09:56:14.419Z,45088.00
2018-10-18T09:57:14.664Z,45792.00
2018-10-18T09:58:14.845Z,44416.00
2018-10-18T09:59:15.039Z,46368.00
2018-10-18T10:00:15.132Z,38112.00
2018-10-18T10:01:15.509Z,49184.00
2018-10-18T10:02:15.516Z,46176.00
2018-10-18T10:03:15.674Z,44160.00
2018-10-18T10:04:15.992Z,48960.00
2018-10-18T10:05:16.169Z,49248.00
2018-10-18T10:06:16.204Z,54688.00
2018-10-18T10:07:16.434Z,34272.00
2018-10-18T10:08:16.490Z,52544.00
2018-10-18T10:09:16.807Z,43936.00
2018-10-18T10:10:16.942Z,47616.00
2018-10-18T10:11:17.104Z,49216.00
2018-10-18T10:12:17.263Z,50368.00
2018-10-18T10:13:17.583Z,50400.00
2018-10-18T10:14:17.642Z,45504.00
2018-10-18T10:15:17.741Z,43104.00
2018-10-18T10:16:18.016Z,44704.00
2018-10-18T10:17:18.119Z,48512.00
2018-10-18T10:18:18.531Z,51680.00
2018-10-18T10:19:18.440Z,36640.00
2018-10-18T10:20:18.667Z,49472.00
2018-10-18T10:21:18.739Z,45504.00
2018-10-18T10:22:19.042Z,34240.00
2018-10-18T10:23:19.126Z,40320.00
2018-10-18T10:24:19.206Z,33376.00
2018-10-18T10:25:19.595Z,25216.00
2018-10-18T10:26:20.309Z,23712.00
2018-10-18T10:27:19.882Z,22912.00
2018-10-18T10:28:20.113Z,22848.00
2018-10-18T10:29:20.251Z,23008.00
2018-10-18T10:30:20.512Z,23648.00
2018-10-18T10:31:20.606Z,23808.00
2018-10-18T10:32:20.759Z,27392.00
2018-10-18T10:33:20.953Z,28672.00
2018-10-18T10:34:21.078Z,30080.00
2018-10-18T10:35:21.316Z,32224.00
2018-10-18T10:36:21.499Z,43424.00
2018-10-18T10:37:21.687Z,36224.00
2018-10-18T10:38:21.931Z,45056.00
2018-10-18T10:39:22.196Z,39552.00
2018-10-18T10:40:22.323Z,29472.00
2018-10-18T10:41:22.475Z,17280.00
2018-10-18T10:42:22.756Z,12688.00
2018-10-18T10:43:22.925Z,9956.00
2018-10-18T10:44:23.028Z,8352.00
2018-10-18T10:45:23.340Z,7528.00
2018-10-18T10:46:23.366Z,7168.00
2018-10-18T10:47:23.770Z,6572.00
2018-10-18T10:48:23.679Z,5908.00
2018-10-18T10:49:23.896Z,5408.00
2018-10-18T10:50:24.033Z,5072.00
2018-10-18T10:51:24.262Z,4840.00
2018-10-18T10:52:24.506Z,4620.00
2018-10-18T10:53:24.633Z,4472.00
2018-10-18T10:54:24.856Z,4416.00
2018-10-18T10:55:25.101Z,4352.00
2018-10-18T10:57:25.368Z,4332.00
2018-10-18T10:58:25.688Z,4308.00
2018-10-18T10:59:25.686Z,4144.00
2018-10-18T11:00:25.892Z,3988.00
2018-10-18T11:01:26.219Z,3816.00
2018-10-18T11:02:26.395Z,3676.00
2018-10-18T11:03:26.484Z,3584.00
2018-10-18T11:04:26.751Z,3484.00
2018-10-18T11:05:28.622Z,3432.00
2018-10-18T11:06:28.205Z,3416.00
2018-10-18T11:07:27.592Z,3404.00
2018-10-18T11:08:27.499Z,3384.00
2018-10-18T11:09:27.691Z,3356.00
2018-10-18T11:10:28.306Z,3324.00
2018-10-18T11:11:28.117Z,3304.00
2018-10-18T11:12:28.804Z,3284.00
2018-10-18T11:13:28.298Z,3308.00
2018-10-18T11:14:28.624Z,3400.00
2018-10-18T11:15:30.663Z,3516.00
2018-10-18T11:16:28.887Z,3592.00
2018-10-18T11:17:29.077Z,3600.00
2018-10-18T11:18:29.255Z,3640.00
2018-10-18T11:19:29.786Z,3684.00
2018-10-18T11:20:29.520Z,3724.00
2018-10-18T11:21:30.222Z,3744.00
2018-10-18T11:22:30.055Z,3780.00
2018-10-18T11:24:31.352Z,3748.00
2018-10-18T11:25:30.433Z,3720.00
2018-10-18T11:26:32.165Z,3696.00
2018-10-18T11:27:31.879Z,3672.00
2018-10-18T11:28:30.901Z,3668.00
2018-10-18T11:29:31.228Z,3676.00
2018-10-18T11:30:32.928Z,3692.00
2018-10-18T11:35:52.269Z,3892.00
2018-10-18T11:36:51.641Z,4024.00
2018-10-18T11:37:51.827Z,4140.00
2018-10-18T11:38:51.890Z,4188.00
2018-10-18T11:39:52.079Z,4196.00
2018-10-18T11:40:52.341Z,4196.00
2018-10-18T11:41:52.588Z,4296.00
2018-10-18T11:42:52.620Z,4436.00
2018-10-18T11:43:52.824Z,4660.00
2018-10-18T11:44:53.016Z,4900.00
2018-10-18T11:45:53.149Z,5068.00
2018-10-18T11:46:53.411Z,5196.00
2018-10-18T11:47:53.646Z,5172.00
2018-10-18T11:48:53.812Z,5092.00
2018-10-18T11:49:53.973Z,5092.00
2018-10-18T11:50:54.052Z,5144.00
2018-10-18T11:51:54.346Z,5296.00
2018-10-18T11:52:54.343Z,5420.00
2018-10-18T11:53:54.749Z,5552.00
2018-10-18T11:54:54.917Z,5632.00
2018-10-18T11:55:55.807Z,5636.00
2018-10-18T11:56:55.142Z,5636.00
2018-10-18T11:57:55.280Z,5636.00
2018-10-18T11:58:55.404Z,5608.00
2018-10-18T11:59:55.617Z,5508.00
2018-10-18T12:00:55.707Z,5384.00
2018-10-18T12:01:55.907Z,5268.00
2018-10-18T12:02:56.117Z,5152.00
2018-10-18T12:03:56.277Z,5192.00
2018-10-18T12:04:56.485Z,5324.00
2018-10-18T12:05:56.559Z,5564.00
2018-10-18T12:06:56.922Z,5832.00
2018-10-18T12:07:57.019Z,6048.00
2018-10-18T12:08:57.196Z,6084.00
2018-10-18T12:09:57.279Z,5892.00
2018-10-18T12:10:57.464Z,5632.00
2018-10-18T12:11:57.678Z,5416.00
2018-10-18T12:12:57.730Z,5160.00
2018-10-18T12:13:58.001Z,4920.00
2018-10-18T12:14:58.161Z,4784.00
2018-10-18T12:15:58.350Z,4696.00
2018-10-18T12:16:58.536Z,4636.00
2018-10-18T12:17:58.634Z,4580.00
2018-10-18T12:18:58.782Z,4304.00
2018-10-18T12:19:59.290Z,4336.00
2018-10-18T12:20:59.553Z,4868.00
2018-10-18T12:23:01.006Z,5032.00
2018-10-18T12:24:00.063Z,5108.00
2018-10-18T12:25:00.680Z,5424.00
2018-10-18T12:26:01.213Z,6160.00
2018-10-18T12:27:00.557Z,7196.00
2018-10-18T12:28:00.566Z,7668.00
2018-10-18T12:29:01.241Z,7912.00
2018-10-18T12:30:01.629Z,8100.00
2018-10-18T12:31:01.417Z,8444.00
2018-10-18T12:32:01.408Z,9300.00
2018-10-18T12:34:01.563Z,11048.00
2018-10-18T12:35:02.337Z,10572.00
2018-10-18T12:36:01.882Z,10868.00
2018-10-18T12:37:02.775Z,11384.00
2018-10-18T12:38:02.404Z,15036.00
2018-10-18T12:40:02.443Z,22816.00
2018-10-18T12:41:02.655Z,21184.00
2018-10-18T12:42:02.969Z,17504.00
2018-10-18T12:43:02.955Z,15936.00
2018-10-18T12:44:03.204Z,15384.00
2018-10-18T12:45:03.200Z,16672.00
2018-10-18T12:46:03.631Z,16896.00
2018-10-18T12:47:04.171Z,17600.00
2018-10-18T12:48:03.755Z,16352.00
2018-10-18T12:49:04.005Z,16480.00
2018-10-18T12:50:04.901Z,16416.00
2018-10-18T12:51:04.388Z,16416.00
2018-10-18T12:52:04.354Z,16032.00
2018-10-18T12:53:04.507Z,15936.00
2018-10-18T12:54:04.655Z,15904.00
2018-10-18T12:55:05.686Z,16800.00
2018-10-18T12:56:05.092Z,17376.00
2018-10-18T12:57:05.070Z,19904.00
2018-10-18T12:58:05.318Z,25184.00
2018-10-18T12:59:05.512Z,26112.00
2018-10-18T13:00:05.748Z,24960.00
2018-10-18T13:01:05.880Z,26784.00
2018-10-18T13:02:06.047Z,21472.00
2018-10-18T13:03:06.142Z,18720.00
2018-10-18T13:04:07.171Z,17568.00
2018-10-18T13:05:06.601Z,14824.00
2018-10-18T13:06:06.870Z,14068.00
2018-10-18T13:07:06.902Z,12820.00
2018-10-18T13:08:07.183Z,11268.00
2018-10-18T13:09:07.393Z,10144.00
2018-10-18T13:10:07.441Z,9972.00
2018-10-18T13:11:07.594Z,10808.00
2018-10-18T13:12:07.783Z,12256.00
2018-10-18T13:13:07.972Z,14260.00
2018-10-18T13:14:08.058Z,17408.00
2018-10-18T13:15:08.223Z,20608.00
2018-10-18T13:16:08.451Z,22528.00
2018-10-18T13:17:08.700Z,24576.00
2018-10-18T13:18:08.931Z,31104.00
2018-10-18T13:19:09.003Z,25760.00
2018-10-18T13:20:09.238Z,23392.00
2018-10-18T13:21:09.403Z,22016.00
2018-10-18T13:22:09.464Z,20576.00
2018-10-18T13:23:09.694Z,19200.00
2018-10-18T13:24:09.880Z,18240.00
2018-10-18T13:25:10.060Z,17792.00
2018-10-18T13:26:10.592Z,17824.00
2018-10-18T13:27:10.422Z,17664.00
2018-10-18T13:28:10.622Z,17312.00
2018-10-18T13:29:10.883Z,17056.00
2018-10-18T13:30:10.944Z,16928.00
2018-10-18T13:31:11.064Z,16928.00
2018-10-18T13:32:11.245Z,16608.00
2018-10-18T13:33:11.588Z,16256.00
2018-10-18T13:34:11.668Z,16288.00
2018-10-18T13:35:11.825Z,16576.00
2018-10-18T13:36:12.094Z,17120.00
2018-10-18T13:37:12.228Z,17376.00
2018-10-18T13:38:12.545Z,17216.00
2018-10-18T13:39:12.635Z,16928.00
2018-10-18T13:40:12.729Z,16384.00
2018-10-18T13:41:12.867Z,15236.00
2018-10-18T13:42:13.048Z,14060.00
2018-10-18T13:43:13.272Z,13016.00
2018-10-18T13:44:13.570Z,12116.00
2018-10-18T13:45:13.557Z,11388.00
2018-10-18T13:46:13.738Z,10920.00
2018-10-18T13:47:13.844Z,10676.00
2018-10-18T13:48:14.176Z,10652.00
2018-10-18T13:49:14.351Z,10540.00
2018-10-18T13:50:14.513Z,10064.00
2018-10-18T13:51:14.677Z,9248.00
2018-10-18T13:52:14.783Z,8484.00
2018-10-18T13:53:14.984Z,7944.00
2018-10-18T13:54:15.268Z,7552.00
2018-10-18T13:55:15.392Z,7336.00
2018-10-18T13:56:15.535Z,7016.00
2018-10-18T13:57:15.807Z,6620.00
2018-10-18T13:58:15.881Z,6260.00
2018-10-18T13:59:16.249Z,5932.00
2018-10-18T14:00:16.272Z,5596.00
2018-10-18T14:01:16.356Z,5428.00
2018-10-18T14:02:16.593Z,5292.00
2018-10-18T14:03:17.005Z,5180.00
2018-10-18T14:04:16.904Z,5128.00
2018-10-18T14:05:17.113Z,5132.00
2018-10-18T14:06:17.303Z,5156.00
2018-10-18T14:07:17.524Z,5084.00
2018-10-18T14:08:17.801Z,4924.00
2018-10-18T14:09:17.755Z,4792.00
2018-10-18T14:10:17.978Z,4716.00
2018-10-18T14:11:18.236Z,4596.00
2018-10-18T14:12:18.402Z,4416.00
2018-10-18T14:13:18.507Z,4260.00
2018-10-18T14:14:18.843Z,4096.00
2018-10-18T14:15:18.849Z,3908.00
2018-10-18T14:16:19.024Z,3936.00
2018-10-18T14:17:19.418Z,4068.00
2018-10-18T14:18:19.375Z,4280.00
2018-10-18T14:19:19.585Z,4496.00
2018-10-18T14:20:19.779Z,4516.00
2018-10-18T14:21:19.934Z,4420.00
2018-10-18T14:22:20.120Z,4312.00
2018-10-18T14:23:20.642Z,4244.00
2018-10-18T14:24:20.454Z,4204.00
2018-10-18T14:25:20.626Z,4128.00
2018-10-18T14:26:20.950Z,3996.00
2018-10-18T14:27:20.966Z,3872.00
2018-10-18T14:28:21.120Z,3716.00
2018-10-18T14:29:21.383Z,3572.00
2018-10-18T14:30:21.598Z,3468.00
2018-10-18T14:31:21.584Z,3396.00
2018-10-18T14:32:21.680Z,3376.00
2018-10-18T14:33:22.002Z,3400.00
2018-10-18T14:34:22.148Z,3504.00
2018-10-18T14:35:22.325Z,3656.00
2018-10-18T14:36:22.505Z,3860.00
2018-10-18T14:37:22.545Z,4016.00
2018-10-18T14:38:22.982Z,4136.00
2018-10-18T14:39:22.968Z,4192.00
2018-10-18T14:40:23.107Z,4148.00
2018-10-18T14:41:23.869Z,4032.00
2018-10-18T14:42:23.441Z,3912.00
2018-10-18T14:43:23.888Z,3768.00
2018-10-18T14:44:23.966Z,3608.00
2018-10-18T14:45:24.051Z,3460.00
2018-10-18T14:46:24.274Z,3360.00
2018-10-18T14:47:24.678Z,3332.00
2018-10-18T14:48:24.655Z,3324.00
2018-10-18T14:49:24.790Z,3284.00
2018-10-18T14:50:25.144Z,3232.00
2018-10-18T14:51:25.082Z,3212.00
2018-10-18T14:52:25.362Z,3248.00
2018-10-18T14:53:27.755Z,3308.00
2018-10-18T14:54:25.676Z,3340.00
2018-10-18T14:55:25.877Z,3340.00
2018-10-18T14:56:25.999Z,3336.00
2018-10-18T14:57:26.160Z,3368.00
2018-10-18T14:58:26.306Z,3524.00
2018-10-18T14:59:27.296Z,3880.00
2018-10-18T15:00:26.575Z,4380.00
2018-10-18T15:01:26.854Z,4892.00
2018-10-18T15:02:27.005Z,5328.00
2018-10-18T15:03:27.201Z,5580.00
2018-10-18T15:04:27.341Z,5592.00
2018-10-18T15:05:27.592Z,5416.00
2018-10-18T15:06:27.722Z,5128.00
2018-10-18T15:07:27.878Z,4728.00
2018-10-18T15:08:28.097Z,4188.00
2018-10-18T15:09:28.398Z,3700.00
2018-10-18T15:10:28.398Z,3408.00
2018-10-18T15:11:28.716Z,3304.00
2018-10-18T15:12:28.854Z,3292.00
2018-10-18T15:13:29.016Z,3300.00
2018-10-18T15:14:29.103Z,3292.00
2018-10-18T15:15:29.419Z,3216.00
2018-10-18T15:16:29.326Z,3088.00
2018-10-18T15:17:29.736Z,3008.00
2018-10-18T15:18:29.765Z,3048.00
2018-10-18T15:19:29.923Z,3200.00
2018-10-18T15:20:30.062Z,3448.00
2018-10-18T15:21:30.353Z,3708.00
2018-10-18T15:22:30.479Z,3824.00
2018-10-18T15:23:30.649Z,3748.00
2018-10-18T15:24:30.875Z,3496.00
2018-10-18T15:25:31.128Z,3164.00
2018-10-18T15:26:31.408Z,2872.00
2018-10-18T15:27:31.481Z,2660.00
2018-10-18T15:28:32.362Z,2528.00
2018-10-18T15:29:31.818Z,2420.00
2018-10-18T15:30:31.930Z,2380.00
2018-10-18T15:31:32.188Z,2368.00
2018-10-18T15:32:32.367Z,2368.00
2018-10-18T15:33:32.525Z,2360.00